createdAt,value
2023-01-30T00:09:52.643Z,15.54
2023-01-30T00:19:54.009Z,15.66
2023-01-30T00:30:02.689Z,15.72
2023-01-30T00:40:04.967Z,15.82
2023-01-30T00:50:06.500Z,15.92
2023-01-30T01:00:09.207Z,15.98
2023-01-30T01:10:16.202Z,16.06
2023-01-30T01:20:17.882Z,16.12
2023-01-30T01:30:19.491Z,16.19
2023-01-30T01:40:41.066Z,16.22
2023-01-30T01:50:49.090Z,16.18
2023-01-30T02:00:50.664Z,16.10
2023-01-30T02:11:07.808Z,16.01
2023-01-30T02:21:34.314Z,15.89
2023-01-30T02:31:43.544Z,15.79
2023-01-30T02:42:26.783Z,15.68
2023-01-30T02:52:28.660Z,15.59
2023-01-30T03:02:35.598Z,15.51
2023-01-30T03:12:54.617Z,15.43
2023-01-30T03:22:56.429Z,15.40
2023-01-30T03:32:57.793Z,15.50
2023-01-30T03:42:59.197Z,15.64
2023-01-30T03:53:00.592Z,15.82
2023-01-30T04:03:02.108Z,15.92
2023-01-30T04:13:03.644Z,16.03
2023-01-30T04:23:05.041Z,16.09
2023-01-30T04:33:06.438Z,16.16
2023-01-30T04:43:07.818Z,16.23
2023-01-30T04:53:09.560Z,16.24
2023-01-30T05:03:10.933Z,16.30
2023-01-30T05:13:12.466Z,16.38
2023-01-30T05:23:13.894Z,16.47
2023-01-30T05:33:15.429Z,16.48
2023-01-30T05:43:16.971Z,16.55
2023-01-30T05:53:21.775Z,16.57
2023-01-30T06:03:23.245Z,16.61
2023-01-30T06:13:24.730Z,16.65
2023-01-30T06:23:26.163Z,16.63
2023-01-30T06:33:27.545Z,16.67
2023-01-30T06:43:29.024Z,16.70
2023-01-30T06:53:30.714Z,16.78
2023-01-30T07:03:32.143Z,16.81
2023-01-30T07:13:33.520Z,16.81
2023-01-30T07:23:34.961Z,16.83
2023-01-30T07:33:36.501Z,16.84
2023-01-30T07:43:38.040Z,16.88
2023-01-30T07:53:39.418Z,16.92
2023-01-30T08:03:41.407Z,16.94
2023-01-30T08:13:42.808Z,16.96
2023-01-30T08:23:44.251Z,16.96
2023-01-30T08:33:45.647Z,17.00
2023-01-30T08:43:47.008Z,17.03
2023-01-30T08:53:48.434Z,17.07
2023-01-30T09:03:49.974Z,17.06
2023-01-30T09:13:51.399Z,17.13
2023-01-30T09:23:55.371Z,17.20
2023-01-30T09:33:56.786Z,17.22
2023-01-30T09:44:07.170Z,17.28
2023-01-30T09:54:34.875Z,17.26
2023-01-30T10:04:40.344Z,17.30
2023-01-30T10:14:49.588Z,17.33
2023-01-30T10:25:12.287Z,17.32
2023-01-30T10:35:19.421Z,17.34
2023-01-30T10:45:34.702Z,17.33
2023-01-30T10:55:40.934Z,17.35
2023-01-30T11:05:52.764Z,17.35
2023-01-30T11:15:56.203Z,17.41
2023-01-30T11:26:10.510Z,17.40
2023-01-30T11:36:27.324Z,17.43
2023-01-30T11:46:31.204Z,17.47
2023-01-30T11:56:39.235Z,17.48
2023-01-30T12:06:42.319Z,17.50
2023-01-30T12:17:07.937Z,17.51
2023-01-30T12:27:17.802Z,17.53
2023-01-30T12:37:32.684Z,17.53
2023-01-30T12:47:44.873Z,17.57
2023-01-30T12:58:14.560Z,17.59
2023-01-30T13:08:31.383Z,17.60
2023-01-30T13:18:41.861Z,17.52
2023-01-30T13:28:51.171Z,17.42
2023-01-30T13:39:01.335Z,17.35
2023-01-30T13:49:38.811Z,17.20
2023-01-30T13:59:57.812Z,17.14
2023-01-30T14:10:08.148Z,17.01
2023-01-30T14:20:17.369Z,16.93
2023-01-30T14:30:30.839Z,16.86
2023-01-30T14:40:34.412Z,16.78
2023-01-30T14:50:35.787Z,16.70
2023-01-30T15:00:37.220Z,16.63
2023-01-30T15:11:16.587Z,16.57
2023-01-30T15:21:41.014Z,16.47
2023-01-30T15:31:56.510Z,16.38
2023-01-30T15:42:05.557Z,16.31
2023-01-30T15:52:12.093Z,16.22
2023-01-30T16:02:28.709Z,16.16
2023-01-30T16:12:30.414Z,16.07
2023-01-30T16:22:33.247Z,16.00
2023-01-30T16:32:34.628Z,15.97
2023-01-30T16:42:36.909Z,15.94
2023-01-30T16:52:43.657Z,15.90
2023-01-30T17:02:55.823Z,15.85
2023-01-30T17:12:57.398Z,15.79
2023-01-30T17:22:59.855Z,15.75
2023-01-30T17:33:01.434Z,15.68
2023-01-30T17:43:03.023Z,15.65
2023-01-30T17:53:04.598Z,15.61
2023-01-30T18:03:06.797Z,15.58
2023-01-30T18:13:08.203Z,15.53
2023-01-30T18:23:09.714Z,15.50
2023-01-30T18:33:11.280Z,15.44
2023-01-30T18:43:12.772Z,15.38
2023-01-30T18:53:14.165Z,15.35
2023-01-30T19:03:16.525Z,15.42
2023-01-30T19:13:32.981Z,15.60
2023-01-30T19:23:34.380Z,15.85
2023-01-30T19:33:35.946Z,16.03
2023-01-30T19:43:38.306Z,16.22
2023-01-30T19:53:43.671Z,16.35
2023-01-30T20:03:45.424Z,16.47
2023-01-30T20:13:46.829Z,16.57
2023-01-30T20:23:48.553Z,16.61
2023-01-30T20:33:50.160Z,16.63
2023-01-30T20:43:52.950Z,16.54
2023-01-30T20:53:55.777Z,16.43
2023-01-30T21:03:57.229Z,16.36
2023-01-30T21:13:58.925Z,16.17
2023-01-30T21:24:02.181Z,16.06
2023-01-30T21:34:03.564Z,15.96
2023-01-30T21:44:05.117Z,15.88
2023-01-30T21:54:06.518Z,15.83
2023-01-30T22:04:10.463Z,15.79
2023-01-30T22:14:14.722Z,15.70
2023-01-30T22:24:16.161Z,15.65
2023-01-30T22:34:17.589Z,15.56
2023-01-30T22:44:19.175Z,15.52
2023-01-30T22:54:20.737Z,15.47
2023-01-30T23:04:24.409Z,15.51
2023-01-30T23:14:25.811Z,15.62
2023-01-30T23:24:27.251Z,15.82
2023-01-30T23:34:28.685Z,16.01
2023-01-30T23:44:30.098Z,16.17
2023-01-30T23:54:31.709Z,16.29
